createdAt,value
2022-10-09T07:24:06.164Z,16.75
2022-10-09T08:26:46.605Z,17.00
2022-10-09T08:28:18.993Z,15.95
2022-10-09T08:29:51.079Z,15.10
2022-10-09T08:31:30.962Z,17.00
2022-10-09T08:33:06.504Z,15.50
2022-10-09T08:34:41.071Z,11.57
2022-10-09T08:36:15.592Z,15.80
2022-10-09T08:37:47.714Z,15.63
2022-10-09T08:39:19.598Z,10.68
2022-10-09T08:40:58.122Z,10.60
2022-10-09T08:42:44.822Z,11.82
2022-10-09T08:44:34.684Z,12.75
2022-10-09T08:46:21.054Z,13.10
2022-10-09T08:48:14.245Z,15.30
2022-10-09T08:50:06.265Z,13.48
2022-10-09T08:51:41.550Z,15.07
2022-10-09T08:53:27.805Z,11.18
2022-10-09T08:55:22.017Z,15.25
2022-10-09T08:57:07.525Z,15.73
2022-10-09T08:59:27.067Z,14.48
2022-10-09T09:01:08.020Z,15.02
2022-10-09T09:03:10.473Z,10.98
2022-10-09T09:05:06.585Z,13.60
2022-10-09T09:07:09.057Z,17.98
2022-10-09T09:15:47.771Z,11.45
2022-10-09T09:16:52.361Z,10.98
2022-10-09T09:18:43.009Z,13.50
2022-10-09T09:18:43.015Z,16.70
2022-10-09T09:20:33.507Z,10.32
2022-10-09T09:22:12.267Z,12.40
2022-10-09T09:23:51.751Z,10.85
2022-10-09T09:25:31.308Z,11.45
2022-10-09T09:27:07.675Z,12.30
2022-10-09T09:28:58.560Z,10.73
2022-10-09T09:30:33.937Z,7.40
2022-10-09T09:32:05.920Z,9.43
2022-10-09T09:33:53.239Z,10.43
2022-10-09T09:35:25.235Z,10.70
2022-10-09T09:37:00.546Z,11.23
2022-10-09T09:38:32.537Z,9.68
2022-10-09T09:42:00.638Z,12.45
2022-10-09T09:43:34.784Z,7.50
2022-10-09T09:45:07.366Z,13.23
2022-10-09T09:46:42.189Z,14.35
2022-10-09T09:48:20.545Z,9.32
2022-10-09T09:49:56.701Z,11.52
2022-10-09T09:51:36.897Z,6.82
2022-10-09T09:53:15.921Z,8.30
2022-10-09T09:54:48.647Z,8.88
2022-10-09T09:57:52.384Z,9.15
2022-10-09T09:59:30.125Z,7.97
2022-10-09T10:01:03.635Z,14.25
2022-10-09T10:02:38.239Z,9.30
2022-10-09T10:04:20.324Z,7.78
2022-10-09T10:05:52.404Z,6.80
2022-10-09T10:07:35.503Z,10.15
2022-10-09T10:09:14.385Z,14.07
2022-10-09T10:10:49.644Z,7.03
2022-10-09T10:12:21.391Z,5.25
2022-10-09T10:14:01.138Z,8.85
2022-10-09T10:15:54.933Z,9.13
2022-10-09T10:17:29.366Z,6.70
2022-10-09T10:19:01.252Z,8.60
2022-10-09T10:20:34.258Z,6.43
2022-10-09T10:22:07.715Z,6.53
2022-10-09T10:23:48.851Z,5.30
2022-10-09T10:25:22.218Z,6.60
2022-10-09T10:27:03.688Z,7.78
2022-10-09T10:28:46.819Z,7.40
2022-10-09T10:30:23.876Z,7.93
2022-10-09T10:31:56.647Z,11.30
2022-10-09T10:35:19.262Z,6.55
2022-10-09T10:37:05.298Z,9.60
2022-10-09T10:38:46.813Z,7.05
2022-10-09T10:40:53.828Z,9.02
2022-10-09T10:44:55.097Z,7.07
2022-10-09T10:46:52.331Z,5.88
2022-10-09T10:48:40.187Z,8.82
2022-10-09T10:50:15.731Z,7.78
2022-10-09T10:51:53.952Z,5.88
2022-10-09T10:53:37.942Z,8.95
2022-10-09T10:55:09.870Z,8.95
2022-10-09T10:56:51.501Z,5.85
2022-10-09T11:00:46.161Z,7.53
2022-10-09T11:02:40.959Z,9.23
2022-10-09T11:04:28.308Z,8.80
2022-10-09T11:06:06.453Z,7.28
2022-10-09T11:07:50.028Z,8.70
2022-10-09T11:09:43.895Z,5.43
2022-10-09T11:24:01.514Z,6.70
2022-10-09T11:25:45.112Z,5.82
2022-10-09T11:27:57.242Z,6.90
2022-10-09T11:30:37.474Z,6.40
2022-10-09T11:54:14.786Z,5.45
2022-10-09T11:55:48.521Z,6.47
2022-10-09T11:59:45.244Z,6.82
2022-10-09T12:01:30.488Z,5.47
2022-10-09T15:26:45.233Z,3.42
2022-10-09T15:28:29.776Z,2.15
2022-10-09T15:32:26.726Z,4.20
2022-10-09T15:34:04.094Z,5.55
2022-10-09T15:35:40.969Z,4.95
2022-10-09T15:37:18.017Z,5.70
2022-10-09T17:29:13.959Z,6.05
2022-10-09T17:48:18.190Z,5.75
2022-10-09T17:52:13.052Z,5.63
2022-10-09T18:12:15.934Z,6.00
2022-10-09T18:14:14.393Z,7.57
2022-10-09T18:15:53.010Z,8.65
2022-10-09T18:17:35.618Z,4.97
2022-10-09T18:19:14.288Z,4.28
2022-10-09T18:21:15.432Z,6.28
2022-10-09T18:22:57.660Z,6.65
2022-10-09T18:24:35.133Z,7.00
2022-10-09T18:26:19.943Z,4.95
2022-10-09T18:27:54.843Z,4.63
2022-10-09T18:29:35.620Z,6.30
2022-10-09T18:31:12.567Z,6.07
2022-10-09T18:32:50.418Z,5.93
2022-10-09T18:34:23.082Z,10.60
2022-10-09T18:36:01.949Z,5.55
2022-10-09T18:37:38.939Z,5.72
2022-10-09T18:39:13.568Z,6.72
2022-10-09T18:40:48.178Z,5.40
2022-10-09T18:42:21.218Z,4.93
2022-10-09T18:46:34.496Z,7.55
2022-10-09T18:58:49.134Z,9.38
2022-10-09T19:06:00.128Z,6.68
2022-10-09T19:07:58.368Z,4.43
2022-10-09T19:12:10.316Z,4.10
